Time;durP1;ratioP1;P1;durP2;ratioP2;P2;SDS_P1;SDS_P2;PMS_P1;PMS_P2;Temp;Humidity;BMP_temperature;BMP_pressure;BME280_temperature;BME280_humidity;BME280_pressure;Samples;Min_cycle;Max_cycle;Signal;HPM_P1;HPM_P2
2023/07/03 00:00:27;;;;;;;;;8.00;8.00;;;;;18.92;77.01;99145.00;6313620;20;2751388;-48
2023/07/03 00:02:55;;;;;;;;;9.00;9.00;;;;;18.83;77.43;99141.41;6321190;20;2761713;-52
2023/07/03 00:05:24;;;;;;;;;12.80;9.40;;;;;18.48;79.38;99140.41;6311587;20;2774375;-48
2023/07/03 00:07:52;;;;;;;;;5.00;3.50;;;;;18.44;80.12;99144.50;6287958;20;2744269;-49
2023/07/03 00:10:21;;;;;;;;;8.20;8.20;;;;;18.55;80.50;99146.94;6307046;20;2750249;-50
2023/07/03 00:12:49;;;;;;;;;6.00;6.00;;;;;18.50;80.96;99141.13;6312974;20;2748268;-47
2023/07/03 00:15:18;;;;;;;;;7.40;7.40;;;;;18.51;81.19;99140.13;6306120;20;2738848;-48
2023/07/03 00:17:47;;;;;;;;;8.00;8.00;;;;;18.49;80.94;99139.44;6341023;20;2748207;-47
2023/07/03 00:20:15;;;;;;;;;7.50;7.50;;;;;18.48;80.46;99140.41;6314979;20;2744105;-46
2023/07/03 00:22:46;;;;;;;;;6.80;6.80;;;;;18.33;81.81;99147.47;6309277;20;2750314;-46
2023/07/03 00:25:15;;;;;;;;;5.60;5.60;;;;;18.28;82.08;99147.09;6309391;20;2739890;-49
2023/07/03 00:27:46;;;;;;;;;9.60;9.60;;;;;17.98;83.40;99154.59;6339215;20;2758797;-51
2023/07/03 00:30:16;;;;;;;;;12.60;12.60;;;;;17.90;83.56;99154.53;6305130;20;2794198;-50
2023/07/03 00:32:43;;;;;;;;;8.00;8.00;;;;;18.24;82.52;99151.09;6294192;20;2744101;-47
2023/07/03 00:35:12;;;;;;;;;8.20;8.20;;;;;18.53;80.82;99159.84;6308551;20;2739915;-51
2023/07/03 00:37:40;;;;;;;;;8.67;8.67;;;;;18.79;79.21;99156.31;6311682;20;2746121;-50
2023/07/03 00:40:10;;;;;;;;;9.00;9.00;;;;;18.76;79.37;99156.63;6312192;20;2743184;-47
2023/07/03 00:42:39;;;;;;;;;9.00;9.00;;;;;18.91;77.93;99162.34;6310904;20;2749268;-49
2023/07/03 00:45:10;;;;;;;;;9.20;7.40;;;;;18.97;77.32;99148.09;6308165;20;2749366;-47
2023/07/03 00:47:39;;;;;;;;;8.60;8.00;;;;;18.86;78.00;99147.34;6306479;20;2750340;-48
2023/07/03 00:50:07;;;;;;;;;11.00;9.00;;;;;19.07;76.75;99157.00;6323007;20;2644191;-47
2023/07/03 00:52:39;;;;;;;;;8.00;8.00;;;;;19.04;76.92;99160.91;6332778;20;2750342;-52
2023/07/03 00:55:11;;;;;;;;;10.00;8.00;;;;;18.83;77.92;99158.56;6309159;20;2764004;-47
2023/07/03 00:57:40;;;;;;;;;12.00;9.67;;;;;18.85;78.01;99163.81;6312098;20;2781562;-52
2023/07/03 01:00:10;;;;;;;;;10.20;10.20;;;;;18.72;78.97;99160.66;6336229;20;2793100;-51
2023/07/03 01:02:58;;;;;;;;;10.00;10.00;;;;;18.69;79.46;99156.38;6313434;20;2776402;-49
2023/07/03 01:05:32;;;;;;;;;11.00;11.00;;;;;18.43;80.22;99151.78;6285595;20;2487915;-51
2023/07/03 01:08:01;;;;;;;;;11.80;9.80;;;;;18.30;81.42;99155.91;6306081;20;2777623;-49
2023/07/03 01:10:31;;;;;;;;;7.67;7.67;;;;;17.98;82.21;99157.31;6279193;20;2735821;-47
2023/07/03 01:13:06;;;;;;;;;9.67;8.67;;;;;17.52;84.60;99151.03;6309872;20;2759705;-50
2023/07/03 01:15:40;;;;;;;;;10.00;9.00;;;;;17.27;86.55;99156.19;6308554;20;2769103;-49
2023/07/03 01:18:11;;;;;;;;;11.60;10.40;;;;;17.33;87.69;99147.44;6337149;20;2792481;-50
2023/07/03 01:20:47;;;;;;;;;9.67;7.67;;;;;17.53;86.43;99153.59;6281008;20;2764901;-49
2023/07/03 01:23:26;;;;;;;;;9.00;9.00;;;;;17.70;85.93;99149.22;6316149;20;2753470;-52
2023/07/03 01:25:57;;;;;;;;;15.00;12.00;;;;;17.89;84.03;99145.53;6275234;20;3527385;-46
2023/07/03 01:28:28;;;;;;;;;8.33;8.33;;;;;17.83;84.23;99148.88;6312079;20;3458611;-47
2023/07/03 01:30:57;;;;;;;;;11.00;9.33;;;;;17.93;84.08;99149.66;6306601;20;3494105;-50
2023/07/03 01:33:32;;;;;;;;;14.67;11.33;;;;;17.94;83.54;99150.50;6308856;20;3512832;-49
2023/07/03 01:36:00;;;;;;;;;9.50;9.50;;;;;18.14;82.91;99156.63;6312714;20;2771093;-48
2023/07/03 01:38:30;;;;;;;;;11.40;10.40;;;;;18.12;82.43;99153.22;6303135;20;2788934;-49
2023/07/03 01:40:59;;;;;;;;;11.00;11.00;;;;;18.09;82.77;99148.97;6275833;20;3531524;-46
2023/07/03 01:43:28;;;;;;;;;10.67;10.67;;;;;17.97;83.87;99155.63;6308236;20;3509755;-49
2023/07/03 01:45:57;;;;;;;;;9.60;9.60;;;;;17.80;85.10;99159.16;6338391;20;2758645;-49
2023/07/03 01:48:31;;;;;;;;;12.40;9.00;;;;;18.07;83.63;99167.28;6306685;20;2769030;-49
2023/07/03 01:50:59;;;;;;;;;13.00;10.00;;;;;17.68;85.41;99167.50;6285035;20;2791964;-49
2023/07/03 01:53:48;;;;;;;;;11.60;9.80;;;;;17.27;86.07;99169.75;6302947;20;2780638;-48
2023/07/03 01:56:23;;;;;;;;;9.33;9.33;;;;;16.84;88.71;99162.19;6273283;20;3484759;-49
2023/07/03 01:59:24;;;;;;;;;12.00;10.00;;;;;16.63;89.35;99170.47;6310601;20;2796133;-56
2023/07/03 02:02:15;;;;;;;;;9.00;9.00;;;;;17.10;88.71;99173.25;6275860;20;2758726;-49
2023/07/03 02:05:28;;;;;;;;;10.00;9.50;;;;;16.92;89.16;99175.00;6283136;20;2772151;-48
2023/07/03 02:08:00;;;;;;;;;14.00;11.00;;;;;16.61;89.23;99184.19;6280887;20;2780627;-47
2023/07/03 02:10:27;;;;;;;;;10.50;10.00;;;;;16.63;90.22;99192.16;6315776;20;2789900;-49
2023/07/03 02:12:56;;;;;;;;;12.60;11.40;;;;;16.86;89.55;99182.75;6308469;20;2789958;-49
2023/07/03 02:15:26;;;;;;;;;10.20;10.00;;;;;17.03;88.59;99183.81;6300932;20;2789870;-48
2023/07/03 02:17:55;;;;;;;;;10.00;10.00;;;;;17.03;88.37;99177.53;6281201;20;2785762;-48
2023/07/03 02:20:23;;;;;;;;;13.00;12.00;;;;;16.95;88.74;99181.00;6277072;20;2785827;-47
2023/07/03 02:22:51;;;;;;;;;13.50;12.00;;;;;16.75;89.34;99180.16;6311344;20;2783596;-46
2023/07/03 02:25:18;;;;;;;;;11.50;11.50;;;;;16.53;91.70;99185.91;6282632;20;2794022;-50
2023/07/03 02:27:46;;;;;;;;;11.00;11.00;;;;;16.73;91.65;99181.31;6283808;20;2785807;-46
2023/07/03 02:30:14;;;;;;;;;12.33;11.00;;;;;16.86;90.50;99188.16;6278121;20;3510863;-47
2023/07/03 02:32:42;;;;;;;;;9.00;9.00;;;;;17.04;89.09;99188.25;6317393;20;2739862;-46
2023/07/03 02:35:10;;;;;;;;;15.67;11.33;;;;;16.84;89.94;99190.16;6282250;20;2798242;-48
2023/07/03 02:37:38;;;;;;;;;18.00;12.00;;;;;17.15;88.25;99192.63;6308965;20;3534682;-47
2023/07/03 02:40:13;;;;;;;;;13.00;10.67;;;;;17.03;88.06;99193.81;6307058;20;3512896;-50
2023/07/03 02:42:41;;;;;;;;;14.67;13.00;;;;;16.52;90.48;99198.59;6309553;20;3512893;-48
2023/07/03 02:45:09;;;;;;;;;12.00;10.00;;;;;16.74;90.65;99207.41;6311115;20;2789867;-49
2023/07/03 02:47:38;;;;;;;;;10.33;10.33;;;;;16.40;91.65;99208.75;6284826;20;2783825;-48
2023/07/03 02:50:10;;;;;;;;;11.00;11.00;;;;;16.29;92.81;99217.00;6319062;20;2789915;-48
2023/07/03 02:52:39;;;;;;;;;12.60;11.60;;;;;16.69;92.10;99229.53;6309032;20;2790993;-46
2023/07/03 02:55:07;;;;;;;;;12.00;10.50;;;;;16.58;92.16;99222.41;6291104;20;2786959;-50
2023/07/03 02:57:34;;;;;;;;;10.00;10.00;;;;;16.74;91.46;99219.09;6290677;20;2794069;-50
2023/07/03 03:00:04;;;;;;;;;11.00;11.00;;;;;16.95;90.42;99224.38;6282881;20;3514847;-47
2023/07/03 03:02:31;;;;;;;;;12.00;10.50;;;;;16.99;90.46;99224.97;6321673;20;2792954;-47
2023/07/03 03:04:59;;;;;;;;;11.00;11.00;;;;;16.92;90.94;99229.25;6284225;20;2792151;-45
2023/07/03 03:07:27;;;;;;;;;12.00;12.00;;;;;17.04;90.44;99228.94;6319975;20;2792987;-50
2023/07/03 03:09:54;;;;;;;;;9.50;9.50;;;;;17.06;90.30;99237.78;6287806;20;2775333;-45
2023/07/03 03:12:21;;;;;;;;;13.00;12.00;;;;;17.08;90.10;99234.91;6288653;20;2796096;-46
2023/07/03 03:14:50;;;;;;;;;11.60;9.80;;;;;17.20;89.46;99225.59;6306369;20;2792126;-49
2023/07/03 03:17:18;;;;;;;;;11.33;11.00;;;;;17.18;90.04;99219.47;6282549;20;2794080;-50
2023/07/03 03:19:46;;;;;;;;;12.50;10.00;;;;;17.28;88.99;99223.00;6316993;20;2792014;-47
2023/07/03 03:22:13;;;;;;;;;9.00;9.00;;;;;17.17;89.53;99227.75;6290812;20;2745080;-51
2023/07/03 03:24:41;;;;;;;;;11.00;11.00;;;;;17.30;89.33;99228.28;6287499;20;2789915;-48
2023/07/03 03:27:08;;;;;;;;;11.00;9.00;;;;;17.20;89.89;99243.75;6290957;20;2769061;-48
2023/07/03 03:29:38;;;;;;;;;13.00;11.50;;;;;17.39;89.09;99245.53;6287989;20;2793087;-48
2023/07/03 03:32:06;;;;;;;;;9.00;9.00;;;;;17.42;87.97;99237.94;6291032;20;2748203;-50
2023/07/03 03:34:35;;;;;;;;;11.00;9.00;;;;;17.63;87.70;99234.13;6308927;20;2767020;-47
2023/07/03 03:37:04;;;;;;;;;11.00;10.33;;;;;17.49;87.67;99233.63;6281316;20;3516072;-48
2023/07/03 03:39:31;;;;;;;;;11.00;11.00;;;;;17.58;87.57;99229.16;6316990;20;2789856;-47
2023/07/03 03:41:58;;;;;;;;;12.50;10.00;;;;;17.54;88.12;99235.91;6286612;20;2794034;-47
2023/07/03 03:44:28;;;;;;;;;12.67;11.00;;;;;17.43;88.77;99236.06;6285223;20;3511729;-48
2023/07/03 03:46:55;;;;;;;;;13.00;11.50;;;;;17.71;86.63;99240.50;6318903;20;2790942;-47
2023/07/03 03:49:23;;;;;;;;;11.00;11.00;;;;;17.69;86.79;99255.25;6286522;20;2791955;-47
2023/07/03 03:51:50;;;;;;;;;9.50;9.50;;;;;17.65;87.99;99254.69;6287825;20;2769163;-48
2023/07/03 03:54:18;;;;;;;;;10.00;10.00;;;;;17.75;87.67;99244.66;6291573;20;2796276;-49
2023/07/03 03:56:47;;;;;;;;;12.00;11.67;;;;;17.67;88.34;99257.28;6283130;20;3546147;-50
2023/07/03 03:59:17;;;;;;;;;10.00;10.00;;;;;17.86;86.95;99256.34;6314036;20;3509679;-48
2023/07/03 04:01:45;;;;;;;;;10.33;9.67;;;;;17.86;86.77;99256.34;6310949;20;2783786;-48
2023/07/03 04:04:12;;;;;;;;;10.00;10.00;;;;;17.97;86.87;99261.56;6317059;20;2792988;-46
2023/07/03 04:06:40;;;;;;;;;10.00;9.00;;;;;18.12;86.07;99267.34;6281174;20;3499314;-47
2023/07/03 04:09:09;;;;;;;;;15.00;12.00;;;;;18.09;85.89;99263.06;6313494;20;3524216;-47
2023/07/03 04:11:37;;;;;;;;;10.50;10.50;;;;;18.15;85.24;99259.72;6314405;20;2788938;-47
2023/07/03 04:14:05;;;;;;;;;9.00;9.00;;;;;18.17;85.78;99263.16;6281792;20;2756592;-50
2023/07/03 04:16:33;;;;;;;;;13.33;10.67;;;;;18.35;84.81;99262.28;6309633;20;2794106;-53
2023/07/03 04:19:01;;;;;;;;;9.67;8.33;;;;;18.49;83.79;99259.06;6309905;20;2762839;-46
2023/07/03 04:21:29;;;;;;;;;12.00;11.00;;;;;18.61;83.53;99271.38;6314432;20;2791522;-50
2023/07/03 04:23:57;;;;;;;;;10.00;10.00;;;;;18.80;82.94;99266.81;6283918;20;3512794;-48
2023/07/03 04:26:24;;;;;;;;;10.00;10.00;;;;;18.92;81.82;99276.44;6316488;20;2783815;-46
2023/07/03 04:28:52;;;;;;;;;9.67;9.67;;;;;19.40;79.26;99275.06;6279910;20;2771269;-47
2023/07/03 04:31:21;;;;;;;;;9.60;8.00;;;;;19.29;79.17;99278.06;6340811;20;2769005;-49
2023/07/03 04:33:51;;;;;;;;;8.00;8.00;;;;;19.35;79.28;99271.13;6308497;20;2737891;-46
2023/07/03 04:36:23;;;;;;;;;11.33;9.33;;;;;19.33;79.39;99290.34;6316962;20;2773391;-50
2023/07/03 04:38:56;;;;;;;;;8.67;8.67;;;;;19.49;78.73;99279.56;6308486;20;2755491;-50
2023/07/03 04:41:27;;;;;;;;;10.33;10.33;;;;;20.08;76.63;99289.72;6311641;20;2789975;-48
2023/07/03 04:44:00;;;;;;;;;8.00;8.00;;;;;19.79;77.89;99288.25;6336344;20;2740012;-50
2023/07/03 04:46:29;;;;;;;;;11.00;10.00;;;;;20.14;75.79;99302.66;6311076;20;2790014;-45
2023/07/03 04:49:03;;;;;;;;;12.00;10.00;;;;;20.72;74.95;99310.03;6312953;20;2739867;-48
2023/07/03 04:51:32;;;;;;;;;11.00;11.00;;;;;20.54;72.78;99312.03;6310784;20;3518025;-49
2023/07/03 04:54:01;;;;;;;;;8.67;8.67;;;;;20.41;74.26;99307.03;6312963;20;2746216;-46
2023/07/03 04:56:33;;;;;;;;;10.00;10.00;;;;;20.59;72.71;99304.22;6312597;20;2792076;-46
2023/07/03 04:59:02;;;;;;;;;12.00;9.20;;;;;20.50;71.95;99311.47;6333543;20;2778414;-51
2023/07/03 05:01:30;;;;;;;;;10.00;10.00;;;;;20.55;71.88;99309.13;6278825;20;2793331;-48
2023/07/03 05:03:58;;;;;;;;;9.67;9.00;;;;;20.94;70.25;99308.47;6323300;20;2751400;-48
2023/07/03 05:06:26;;;;;;;;;9.00;9.00;;;;;20.86;70.49;99307.63;6313251;20;2741968;-48
2023/07/03 05:08:55;;;;;;;;;12.00;8.67;;;;;21.12;69.88;99316.50;6320029;20;2767146;-47
2023/07/03 05:11:25;;;;;;;;;9.80;9.00;;;;;21.22;68.35;99317.19;6328024;20;2758731;-48
2023/07/03 05:13:54;;;;;;;;;10.40;9.00;;;;;21.95;64.20;99318.06;6306985;20;2778545;-48
2023/07/03 05:16:22;;;;;;;;;9.00;8.67;;;;;21.69;65.47;99312.84;6288490;20;2745074;-49
2023/07/03 05:18:50;;;;;;;;;9.00;9.00;;;;;21.62;65.77;99315.44;6319079;20;2742988;-47
2023/07/03 05:21:19;;;;;;;;;8.40;8.40;;;;;21.84;64.75;99321.19;6339090;20;2751402;-47
2023/07/03 05:23:47;;;;;;;;;8.50;8.50;;;;;21.95;64.38;99318.06;6287919;20;2754501;-47
2023/07/03 05:26:17;;;;;;;;;10.00;10.00;;;;;22.23;63.36;99317.63;6331819;20;2788961;-47
2023/07/03 05:28:45;;;;;;;;;12.00;10.33;;;;;22.61;61.84;99323.22;6285064;20;2792354;-47
2023/07/03 05:31:14;;;;;;;;;12.25;10.00;;;;;22.70;61.28;99322.16;6338351;20;2806596;-46
2023/07/03 05:33:42;;;;;;;;;7.67;7.67;;;;;22.92;59.94;99332.25;6319987;20;2744143;-50
2023/07/03 05:36:10;;;;;;;;;9.67;8.67;;;;;23.10;58.69;99328.38;6313134;20;2763905;-50
2023/07/03 05:38:38;;;;;;;;;8.33;8.33;;;;;22.98;59.12;99337.00;6311664;20;2746171;-49
2023/07/03 05:41:06;;;;;;;;;7.33;7.33;;;;;23.31;58.70;99336.75;6310285;20;2752429;-48
2023/07/03 05:43:34;;;;;;;;;11.67;9.00;;;;;23.54;58.37;99336.72;6307934;20;2758634;-47
2023/07/03 05:46:03;;;;;;;;;8.80;8.80;;;;;23.57;57.93;99341.81;6338627;20;2739871;-49
2023/07/03 05:48:31;;;;;;;;;9.67;9.67;;;;;23.40;59.74;99345.72;6312393;20;2781788;-50
2023/07/03 05:50:59;;;;;;;;;8.33;5.67;;;;;23.73;57.27;99335.34;6314579;20;2731533;-50
2023/07/03 05:53:28;;;;;;;;;8.00;8.00;;;;;23.61;57.47;99343.13;6336906;20;2752551;-48
2023/07/03 05:55:58;;;;;;;;;12.00;8.67;;;;;23.72;58.17;99339.09;6278999;20;2766029;-46
2023/07/03 05:58:27;;;;;;;;;9.67;9.00;;;;;23.96;57.46;99340.75;6311964;20;3502388;-48
2023/07/03 06:00:55;;;;;;;;;8.67;8.67;;;;;24.27;56.27;99348.72;6311234;20;3474315;-48
2023/07/03 06:03:24;;;;;;;;;7.00;7.00;;;;;24.28;55.03;99350.44;6314562;20;2737800;-48
2023/07/03 06:05:53;;;;;;;;;7.00;7.00;;;;;24.32;53.36;99346.25;6316429;20;2739959;-50
2023/07/03 06:08:22;;;;;;;;;8.40;6.00;;;;;24.30;53.20;99347.50;6339582;20;2744040;-51
2023/07/03 06:10:52;;;;;;;;;9.20;8.00;;;;;24.55;54.32;99355.47;6306918;20;2751342;-48
2023/07/03 06:13:20;;;;;;;;;8.67;7.00;;;;;24.64;53.49;99348.78;6279815;20;2749226;-50
2023/07/03 06:15:48;;;;;;;;;9.00;8.00;;;;;24.93;52.89;99358.81;6320897;20;2738909;-49
2023/07/03 06:18:16;;;;;;;;;8.67;7.00;;;;;25.03;50.67;99358.50;6314228;20;2744099;-49
2023/07/03 06:20:44;;;;;;;;;6.00;6.00;;;;;25.17;50.36;99361.22;6315786;20;2748206;-48
2023/07/03 06:23:12;;;;;;;;;9.00;6.67;;;;;24.99;50.58;99358.06;6318900;20;2735714;-57
2023/07/03 06:25:40;;;;;;;;;9.00;9.00;;;;;25.61;50.61;99365.59;6320706;20;2748205;-58
2023/07/03 06:28:08;;;;;;;;;6.67;6.67;;;;;25.66;48.96;99372.41;6320644;20;2748276;-58
2023/07/03 06:30:36;;;;;;;;;6.33;6.00;;;;;25.84;49.06;99370.03;6324948;20;2733655;-58
2023/07/03 06:33:04;;;;;;;;;7.00;7.00;;;;;25.81;49.76;99367.66;6323562;20;2740298;-58
2023/07/03 06:35:33;;;;;;;;;8.67;6.00;;;;;26.11;49.71;99378.47;6319740;20;2730517;-57
2023/07/03 06:38:03;;;;;;;;;6.00;6.00;;;;;26.32;47.03;99370.09;6320298;20;2742220;-50
2023/07/03 06:40:31;;;;;;;;;5.67;5.67;;;;;26.42;45.76;99375.25;6318982;20;2737785;-51
2023/07/03 06:43:00;;;;;;;;;6.40;5.40;;;;;26.80;45.41;99378.38;6342628;20;2748321;-53
2023/07/03 06:45:28;;;;;;;;;7.67;6.00;;;;;27.21;44.17;99379.34;6290538;20;2731240;-52
2023/07/03 06:47:57;;;;;;;;;7.60;6.00;;;;;27.02;43.95;99381.84;6345466;20;2748246;-49
2023/07/03 06:50:25;;;;;;;;;9.67;6.67;;;;;27.33;43.83;99394.19;6286568;20;2752370;-51
2023/07/03 06:52:53;;;;;;;;;6.00;6.00;;;;;27.46;43.17;99385.09;6318241;20;2735721;-48
2023/07/03 06:55:21;;;;;;;;;6.00;5.00;;;;;27.66;41.76;99387.88;6318979;20;2744039;-48
2023/07/03 06:57:49;;;;;;;;;5.00;5.00;;;;;27.82;42.00;99392.13;6320674;20;2738830;-53
2023/07/03 07:00:17;;;;;;;;;6.33;5.00;;;;;28.12;41.48;99396.13;6318550;20;2740943;-50
2023/07/03 07:02:45;;;;;;;;;6.33;6.33;;;;;28.32;40.76;99397.97;6320274;20;2738799;-49
2023/07/03 07:05:14;;;;;;;;;6.00;6.00;;;;;28.15;40.61;99397.59;6316633;20;2740922;-50
2023/07/03 07:07:43;;;;;;;;;8.00;6.00;;;;;27.89;41.54;99399.34;6319560;20;2746146;-54
2023/07/03 07:10:11;;;;;;;;;6.33;6.00;;;;;28.48;43.11;99399.44;6319956;20;2737875;-50
2023/07/03 07:12:39;;;;;;;;;10.00;7.00;;;;;28.98;39.67;99402.41;6316609;20;2751800;-50
2023/07/03 07:15:07;;;;;;;;;6.00;6.00;;;;;28.13;42.21;99394.22;6317016;20;2750333;-51
2023/07/03 07:17:35;;;;;;;;;6.33;6.33;;;;;28.70;39.32;99394.44;6320020;20;2737829;-58
2023/07/03 07:20:18;;;;;;;;;6.33;6.33;;;;;28.40;40.32;99390.28;6317817;20;2736302;-59
2023/07/03 07:22:48;;;;;;;;;7.00;6.00;;;;;29.35;39.07;99400.69;6319872;20;2739972;-59
2023/07/03 07:25:16;;;;;;;;;6.33;6.33;;;;;29.41;38.51;99397.06;6317459;20;2745073;-59
2023/07/03 07:27:44;;;;;;;;;11.33;6.33;;;;;29.32;36.91;99399.22;6321812;20;2761898;-59
2023/07/03 07:30:12;;;;;;;;;6.00;6.00;;;;;29.00;37.18;99398.34;6316761;20;2748232;-59
2023/07/03 07:32:40;;;;;;;;;5.00;5.00;;;;;28.95;38.77;99392.63;6317274;20;2740979;-59
2023/07/03 07:35:08;;;;;;;;;7.33;7.33;;;;;29.27;37.40;99392.69;6318069;20;2744188;-58
2023/07/03 07:37:37;;;;;;;;;5.00;3.67;;;;;29.43;36.83;99400.44;6319895;20;2741759;-60
2023/07/03 07:40:06;;;;;;;;;8.00;5.67;;;;;29.77;35.32;99401.03;6314921;20;2746156;-59
2023/07/03 07:42:36;;;;;;;;;5.00;5.00;;;;;29.10;37.36;99395.97;6340498;20;2745070;-60
2023/07/03 07:45:06;;;;;;;;;6.67;6.67;;;;;29.13;36.82;99391.94;6287028;20;2741980;-59
2023/07/03 07:47:34;;;;;;;;;8.00;7.67;;;;;28.80;37.89;99394.84;6319314;20;2754505;-58
2023/07/03 07:50:02;;;;;;;;;6.00;6.00;;;;;29.56;36.79;99404.16;6324667;20;2736173;-58
2023/07/03 07:52:30;;;;;;;;;6.67;6.67;;;;;30.12;36.62;99397.72;6318437;20;2742015;-59
2023/07/03 07:54:58;;;;;;;;;6.00;6.00;;;;;29.36;36.00;99399.66;6318983;20;2732631;-59
2023/07/03 07:57:29;;;;;;;;;5.67;5.00;;;;;29.24;36.67;99398.66;6316415;20;2735690;-59
2023/07/03 07:59:57;;;;;;;;;8.33;8.33;;;;;29.28;37.60;99402.66;6314163;20;2752525;-59
2023/07/03 08:02:25;;;;;;;;;5.67;5.67;;;;;29.31;34.49;99400.31;6319369;20;2737819;-59
2023/07/03 08:04:53;;;;;;;;;5.33;5.33;;;;;29.69;32.72;99404.09;6313024;20;2736789;-59
2023/07/03 08:07:21;;;;;;;;;6.33;5.00;;;;;30.02;32.27;99400.16;6318879;20;2739985;-60
2023/07/03 08:09:49;;;;;;;;;5.00;5.00;;;;;29.23;33.43;99399.75;6314895;20;2744135;-59
2023/07/03 08:12:17;;;;;;;;;5.67;5.33;;;;;29.74;33.52;99395.97;6317928;20;2744073;-59
2023/07/03 08:14:45;;;;;;;;;7.67;6.67;;;;;30.28;32.37;99391.63;6315351;20;2732572;-54
2023/07/03 08:17:14;;;;;;;;;6.20;6.00;;;;;29.89;32.03;99396.47;6340766;20;2739964;-49
2023/07/03 08:19:42;;;;;;;;;8.00;6.67;;;;;29.80;31.87;99394.19;6282353;20;2746105;-49
2023/07/03 08:22:10;;;;;;;;;6.33;6.00;;;;;29.81;31.92;99395.91;6312280;20;2746119;-51
2023/07/03 08:24:38;;;;;;;;;8.67;6.33;;;;;29.45;31.76;99397.44;6316355;20;2730531;-53
2023/07/03 08:27:07;;;;;;;;;6.00;6.00;;;;;29.25;32.10;99394.81;6325570;20;2730504;-53
2023/07/03 08:29:35;;;;;;;;;8.67;6.00;;;;;29.42;31.49;99401.50;6315148;20;2744040;-54
2023/07/03 08:32:03;;;;;;;;;6.67;5.67;;;;;29.77;30.14;99409.34;6316649;20;2734640;-51
2023/07/03 08:34:31;;;;;;;;;6.67;6.67;;;;;30.33;29.33;99399.22;6318373;20;2746231;-50
2023/07/03 08:37:01;;;;;;;;;3.60;3.60;;;;;29.52;29.53;99403.78;6338545;20;2737796;-50
2023/07/03 08:39:32;;;;;;;;;6.33;3.33;;;;;29.95;29.63;99405.78;6281052;20;2739856;-50
2023/07/03 08:42:19;;;;;;;;;6.67;6.00;;;;;30.26;29.61;99412.31;6313866;20;2743145;-53
2023/07/03 08:44:47;;;;;;;;;10.00;7.00;;;;;30.11;28.51;99415.41;6317732;20;2544141;-53
2023/07/03 08:47:24;;;;;;;;;8.67;6.33;;;;;30.10;30.80;99422.03;6320927;20;2753430;-49
2023/07/03 08:49:54;;;;;;;;;8.00;6.00;;;;;30.35;29.80;99417.31;6311872;20;2736813;-55
2023/07/03 08:52:31;;;;;;;;;8.33;6.00;;;;;29.82;29.83;99415.03;6317264;20;2744073;-50
2023/07/03 08:55:00;;;;;;;;;4.67;4.67;;;;;30.58;29.91;99413.84;6314625;20;2745127;-53
2023/07/03 08:57:31;;;;;;;;;4.75;4.75;;;;;29.96;28.76;99416.63;6339786;20;2639948;-48
2023/07/03 08:59:59;;;;;;;;;12.00;8.33;;;;;30.28;28.87;99408.25;6306935;20;3491981;-51
2023/07/03 09:03:01;;;;;;;;;9.33;9.00;;;;;30.23;29.95;99413.63;6312406;20;2759653;-52
2023/07/03 09:05:40;;;;;;;;;7.67;6.33;;;;;29.44;29.14;99418.75;6311822;20;2744718;-50
2023/07/03 09:08:22;;;;;;;;;9.67;8.00;;;;;30.26;29.31;99415.09;6313161;20;2759749;-51
2023/07/03 09:10:51;;;;;;;;;8.00;6.33;;;;;30.13;28.92;99414.13;6314766;20;2748288;-52
2023/07/03 09:13:34;;;;;;;;;13.67;12.67;;;;;30.60;28.06;99417.25;6322819;20;2786764;-52
2023/07/03 09:16:18;;;;;;;;;16.00;14.50;;;;;30.06;29.06;99410.56;6311045;20;2812805;-52
2023/07/03 09:19:11;;;;;;;;;10.67;8.00;;;;;30.80;28.27;99411.44;6288996;20;2757069;-50
2023/07/03 09:21:40;;;;;;;;;11.00;11.00;;;;;30.52;26.81;99427.81;6314551;20;2483729;-53
2023/07/03 09:24:22;;;;;;;;;10.00;9.00;;;;;30.17;28.45;99422.81;6308487;20;3491045;-53
2023/07/03 09:27:08;;;;;;;;;8.67;6.67;;;;;31.15;26.44;99424.66;6308472;20;2747248;-56
2023/07/03 09:29:39;;;;;;;;;7.33;7.33;;;;;30.61;27.91;99418.94;6296941;20;2740081;-54
2023/07/03 09:32:10;;;;;;;;;8.00;6.00;;;;;30.48;26.48;99418.25;6321811;20;2748246;-57
2023/07/03 09:35:05;;;;;;;;;6.67;6.33;;;;;30.50;27.09;99416.94;6324998;20;2737824;-56
2023/07/03 09:37:39;;;;;;;;;9.67;7.67;;;;;30.25;27.55;99419.75;6307758;20;3472258;-53
2023/07/03 09:40:31;;;;;;;;;11.00;9.33;;;;;31.05;28.00;99424.38;6309458;20;3498683;-51
2023/07/03 09:43:01;;;;;;;;;8.33;8.33;;;;;30.32;27.93;99420.53;6313253;20;2756637;-55
2023/07/03 09:45:33;;;;;;;;;11.00;7.67;;;;;30.34;27.16;99429.47;6314661;20;2772188;-55
2023/07/03 09:48:11;;;;;;;;;5.33;5.33;;;;;30.30;26.39;99422.69;6315931;20;2749377;-51
2023/07/03 09:50:40;;;;;;;;;11.00;10.00;;;;;30.40;27.83;99417.47;6313318;20;2791984;-53
2023/07/03 09:53:30;;;;;;;;;9.00;7.67;;;;;30.91;25.96;99422.84;6314090;20;2746661;-53
2023/07/03 09:56:02;;;;;;;;;7.00;7.00;;;;;30.74;27.36;99408.75;6308817;20;2744178;-53
2023/07/03 09:58:30;;;;;;;;;10.67;7.00;;;;;30.29;28.31;99418.25;6313331;20;2764859;-51
2023/07/03 10:01:00;;;;;;;;;8.33;8.33;;;;;30.14;26.60;99423.25;6325761;20;2748231;-55
2023/07/03 10:03:31;;;;;;;;;8.67;7.67;;;;;30.45;25.72;99418.72;6325944;20;2750410;-51
2023/07/03 10:06:18;;;;;;;;;9.00;9.00;;;;;30.07;26.37;99416.94;6313945;20;2741060;-52
2023/07/03 10:08:52;;;;;;;;;7.33;7.33;;;;;30.75;25.93;99425.16;6318475;20;2744112;-55
2023/07/03 10:11:34;;;;;;;;;8.33;6.33;;;;;30.55;25.38;99435.66;6319620;20;2753550;-55
2023/07/03 10:14:08;;;;;;;;;7.67;7.67;;;;;30.64;24.89;99434.25;6319218;20;2732597;-54
2023/07/03 10:16:37;;;;;;;;;5.00;5.00;;;;;31.10;25.28;99424.53;6314443;20;2738825;-52
2023/07/03 10:19:07;;;;;;;;;7.33;7.33;;;;;30.45;25.59;99424.25;6326367;20;2740910;-55
2023/07/03 10:21:38;;;;;;;;;12.67;9.00;;;;;30.66;25.11;99429.31;6318278;20;2479654;-52
2023/07/03 10:24:08;;;;;;;;;11.33;11.33;;;;;29.75;26.38;99415.13;6313839;20;3514975;-56
2023/07/03 10:26:52;;;;;;;;;8.00;8.00;;;;;31.00;25.43;99422.31;6309401;20;2743133;-53
2023/07/03 10:29:30;;;;;;;;;11.00;9.33;;;;;30.40;25.80;99417.47;6311137;20;3495337;-51
2023/07/03 10:32:09;;;;;;;;;1.20;1.20;;;;;29.76;25.35;99410.44;6342255;20;2736881;-55
2023/07/03 10:35:00;;;;;;;;;9.33;8.67;;;;;30.67;25.58;99422.69;6286050;20;2751443;-54
2023/07/03 10:37:37;;;;;;;;;11.67;10.67;;;;;31.56;25.68;99411.91;6311570;20;3518107;-53
2023/07/03 10:40:19;;;;;;;;;10.00;8.33;;;;;32.06;25.44;99419.81;6313844;20;3499626;-54
2023/07/03 10:42:54;;;;;;;;;4.67;3.33;;;;;31.07;26.48;99416.69;6325735;20;2752393;-53
2023/07/03 10:45:26;;;;;;;;;13.00;10.67;;;;;31.56;27.29;99399.94;6312672;20;3518226;-54
2023/07/03 10:48:13;;;;;;;;;9.00;7.33;;;;;31.71;25.07;99422.56;6306794;20;3468511;-47
2023/07/03 10:51:12;;;;;;;;;13.00;8.33;;;;;31.26;25.74;99426.63;6310291;20;3493144;-53
2023/07/03 10:53:55;;;;;;;;;12.00;12.00;;;;;31.42;26.27;99413.19;6313420;20;3516980;-50
2023/07/03 10:56:43;;;;;;;;;10.33;10.33;;;;;31.57;26.92;99413.59;6282635;20;2487831;-52
2023/07/03 10:59:21;;;;;;;;;13.00;12.00;;;;;31.53;25.48;99412.38;6310150;20;2479434;-52
2023/07/03 11:02:03;;;;;;;;;11.33;9.00;;;;;31.09;26.68;99408.09;6313142;20;3488926;-55
2023/07/03 11:04:58;;;;;;;;;3.20;1.40;;;;;32.29;26.72;99409.81;6341785;20;2741062;-50
2023/07/03 11:08:25;;;;;;;;;7.00;5.67;;;;;31.55;27.30;99401.88;6286193;20;2743077;-52
2023/07/03 11:11:27;;;;;;;;;16.00;12.00;;;;;31.27;27.45;99403.34;6311035;20;3549435;-49
2023/07/03 11:14:22;;;;;;;;;10.00;10.00;;;;;30.42;27.29;99408.09;6289389;20;3518071;-50
2023/07/03 11:17:04;;;;;;;;;12.00;12.00;;;;;31.09;27.62;99406.16;6315147;20;3519235;-52
2023/07/03 11:19:51;;;;;;;;;16.33;13.00;;;;;30.50;28.28;99403.09;6282105;20;3525466;-51
2023/07/03 11:22:31;;;;;;;;;10.33;10.00;;;;;30.42;27.71;99402.56;6280921;20;3502467;-51
2023/07/03 11:25:26;;;;;;;;;13.00;10.00;;;;;31.15;28.36;99405.25;6315950;20;3514899;-52
2023/07/03 11:28:22;;;;;;;;;12.33;10.00;;;;;30.74;28.36;99398.53;6316421;20;3507688;-52
2023/07/03 11:30:54;;;;;;;;;12.67;12.67;;;;;30.81;28.65;99396.53;6284514;20;3515229;-53
2023/07/03 11:33:23;;;;;;;;;13.00;11.33;;;;;30.27;28.14;99397.38;6316935;20;2491938;-47